Time;durP1;ratioP1;P1;durP2;ratioP2;P2;SDS_P1;SDS_P2;PMS_P1;PMS_P2;Temp;Humidity;BMP_temperature;BMP_pressure;BME280_temperature;BME280_humidity;BME280_pressure;Samples;Min_cycle;Max_cycle;Signal;HPM_P1;HPM_P2
2023/11/29 00:01:11;;;;;;;;;;;;;;;0.77;76.50;98210.94;5118763;28;19924;-76
2023/11/29 00:03:39;;;;;;;;;;;;;;;0.78;76.48;98217.66;5118971;28;19919;-75
2023/11/29 00:06:08;;;;;;;;;;;;;;;0.80;76.75;98213.50;5120995;28;19920;-76
2023/11/29 00:08:36;;;;;;;;;;;;;;;0.76;76.64;98214.28;5119381;28;20010;-76
2023/11/29 00:11:07;;;;;;;;;;;;;;;0.75;76.60;98217.59;5115649;28;20031;-75
2023/11/29 00:13:36;;;;;;;;;;;;;;;0.78;75.99;98225.19;5114081;28;19926;-75
2023/11/29 00:16:07;;;;;;;;;;;;;;;0.77;76.01;98226.00;5115512;28;19949;-75
2023/11/29 00:18:37;;;;;;;;;;;;;;;0.75;75.90;98237.69;5117761;28;19920;-75
2023/11/29 00:21:06;;;;;;;;;;;;;;;0.73;76.67;98233.47;5120221;28;19927;-76
2023/11/29 00:23:35;;;;;;;;;;;;;;;0.75;76.05;98236.84;5124410;28;19931;-76
2023/11/29 00:26:04;;;;;;;;;;;;;;;0.78;76.74;98241.91;5122004;28;20010;-76
2023/11/29 00:28:33;;;;;;;;;;;;;;;0.79;76.37;98248.63;5119298;28;19973;-77
2023/11/29 00:31:02;;;;;;;;;;;;;;;0.76;76.02;98249.44;5115709;28;19955;-77
2023/11/29 00:33:32;;;;;;;;;;;;;;;0.79;76.51;98259.53;5115985;28;20339;-76
2023/11/29 00:36:01;;;;;;;;;;;;;;;0.80;75.79;98255.31;5114825;28;19972;-77
2023/11/29 00:38:29;;;;;;;;;;;;;;;0.76;75.91;98258.63;5119058;28;19920;-77
2023/11/29 00:40:58;;;;;;;;;;;;;;;0.73;75.59;98264.44;5128380;28;19924;-77
2023/11/29 00:43:28;;;;;;;;;;;;;;;0.70;76.32;98254.34;5134659;28;19920;-77
2023/11/29 00:45:56;;;;;;;;;;;;;;;0.70;76.01;98264.38;5132723;28;19919;-77
2023/11/29 00:48:25;;;;;;;;;;;;;;;0.67;75.91;98275.22;5130156;28;19926;-77
2023/11/29 00:51:06;;;;;;;;;;;;;;;0.66;76.48;98281.06;5135082;28;19955;-76
2023/11/29 00:53:35;;;;;;;;;;;;;;;0.62;76.04;98286.03;5130101;28;19920;-77
2023/11/29 00:56:03;;;;;;;;;;;;;;;0.61;76.08;98290.19;5127198;28;19919;-77
2023/11/29 00:58:32;;;;;;;;;;;;;;;0.63;76.53;98292.72;5126710;28;19919;-77
2023/11/29 01:01:00;;;;;;;;;;;;;;;0.62;76.35;98296.06;5132370;28;19927;-76
2023/11/29 01:03:29;;;;;;;;;;;;;;;0.60;76.28;98311.09;5126511;28;19920;-76
2023/11/29 01:05:57;;;;;;;;;;;;;;;0.58;77.01;98309.38;5125867;28;19969;-77
2023/11/29 01:08:28;;;;;;;;;;;;;;;0.56;76.58;98316.03;5126250;28;19969;-76
2023/11/29 01:10:57;;;;;;;;;;;;;;;0.59;76.64;98313.56;5119641;28;19920;-77
2023/11/29 01:13:25;;;;;;;;;;;;;;;0.55;76.60;98309.34;5117128;28;19931;-78
2023/11/29 01:15:54;;;;;;;;;;;;;;;0.52;76.57;98314.31;5116733;28;19926;-77
2023/11/29 01:18:22;;;;;;;;;;;;;;;0.52;76.27;98314.31;5118297;28;19924;-77
2023/11/29 01:20:52;;;;;;;;;;;;;;;0.52;76.27;98314.31;5115647;28;19920;-75
2023/11/29 01:23:20;;;;;;;;;;;;;;;0.50;76.80;98315.94;5114422;28;20441;-77
2023/11/29 01:25:50;;;;;;;;;;;;;;;0.46;76.63;98325.06;5115287;28;19919;-77
2023/11/29 01:28:20;;;;;;;;;;;;;;;0.46;76.69;98324.22;5115508;28;20389;-78
2023/11/29 01:30:49;;;;;;;;;;;;;;;0.47;76.60;98320.91;5097604;28;19969;-77
2023/11/29 01:33:18;;;;;;;;;;;;;;;0.41;75.62;98329.16;5113726;28;20353;-77
2023/11/29 01:35:47;;;;;;;;;;;;;;;0.36;76.02;98342.47;5115451;28;19920;-76
2023/11/29 01:38:15;;;;;;;;;;;;;;;0.34;76.08;98349.09;5115685;28;19976;-78
2023/11/29 01:40:44;;;;;;;;;;;;;;;0.36;76.35;98347.47;5113569;28;20015;-77
2023/11/29 01:43:14;;;;;;;;;;;;;;;0.40;75.76;98357.59;5115338;28;19924;-77
2023/11/29 01:45:43;;;;;;;;;;;;;;;0.39;75.87;98353.38;5113385;28;20350;-77
2023/11/29 01:48:12;;;;;;;;;;;;;;;0.38;75.63;98350.88;5114530;28;19927;-77
2023/11/29 01:50:40;;;;;;;;;;;;;;;0.38;75.48;98355.88;5113685;28;19926;-77
2023/11/29 01:53:09;;;;;;;;;;;;;;;0.36;75.47;98352.50;5114644;28;19958;-76
2023/11/29 01:55:42;;;;;;;;;;;;;;;0.37;75.76;98359.19;5114549;28;20010;-76
2023/11/29 01:58:11;;;;;;;;;;;;;;;0.36;76.16;98357.53;5113395;28;19969;-77
2023/11/29 02:00:42;;;;;;;;;;;;;;;0.39;76.16;98357.56;5114489;28;19920;-76
2023/11/29 02:03:12;;;;;;;;;;;;;;;0.39;76.12;98362.56;5114369;28;19920;-76
2023/11/29 02:05:41;;;;;;;;;;;;;;;0.34;76.15;98364.16;5113183;28;19926;-76
2023/11/29 02:08:10;;;;;;;;;;;;;;;0.35;75.88;98365.84;5114933;28;19920;-77
2023/11/29 02:10:39;;;;;;;;;;;;;;;0.34;76.08;98376.69;5113185;28;20365;-76
2023/11/29 02:13:09;;;;;;;;;;;;;;;0.38;75.91;98371.78;5112959;28;19927;-76
2023/11/29 02:15:38;;;;;;;;;;;;;;;0.41;75.45;98386.03;5096094;28;19927;-76
2023/11/29 02:18:08;;;;;;;;;;;;;;;0.39;76.08;98392.69;5112720;28;19958;-77
2023/11/29 02:20:37;;;;;;;;;;;;;;;0.41;75.66;98396.91;5112993;28;20354;-77
2023/11/29 02:23:09;;;;;;;;;;;;;;;0.43;75.46;98395.25;5113734;28;19919;-77
2023/11/29 02:25:39;;;;;;;;;;;;;;;0.43;75.88;98399.47;5115457;28;19919;-76
2023/11/29 02:28:07;;;;;;;;;;;;;;;0.42;75.52;98407.78;5117796;28;19926;-78
2023/11/29 02:30:36;;;;;;;;;;;;;;;0.39;75.85;98402.72;5116424;28;20339;-76
2023/11/29 02:33:06;;;;;;;;;;;;;;;0.41;75.54;98398.56;5117208;28;19974;-77
2023/11/29 02:35:34;;;;;;;;;;;;;;;0.39;74.94;98397.69;5116771;28;19969;-76
2023/11/29 02:38:04;;;;;;;;;;;;;;;0.38;75.17;98398.53;5117560;27;19962;-77
2023/11/29 02:40:32;;;;;;;;;;;;;;;0.36;74.60;98403.50;5116500;28;19919;-77
2023/11/29 02:43:04;;;;;;;;;;;;;;;0.32;74.90;98418.47;5117042;27;19927;-76
2023/11/29 02:45:33;;;;;;;;;;;;;;;0.31;74.45;98419.31;5115945;28;19920;-76
2023/11/29 02:48:05;;;;;;;;;;;;;;;0.31;74.71;98425.16;5117102;28;19920;-76
2023/11/29 02:50:34;;;;;;;;;;;;;;;0.29;74.62;98425.97;5117421;28;19945;-76
2023/11/29 02:53:02;;;;;;;;;;;;;;;0.29;74.62;98430.97;5116834;28;19926;-76
2023/11/29 02:55:31;;;;;;;;;;;;;;;0.29;74.54;98426.78;5116807;28;19920;-76
2023/11/29 02:58:00;;;;;;;;;;;;;;;0.27;73.79;98422.53;5115832;28;19926;-76
2023/11/29 03:00:30;;;;;;;;;;;;;;;0.26;74.21;98433.41;5115991;28;19919;-76
2023/11/29 03:02:59;;;;;;;;;;;;;;;0.25;74.62;98421.69;5116773;28;19923;-73
2023/11/29 03:05:28;;;;;;;;;;;;;;;0.23;74.03;98430.84;5116767;28;19919;-72
2023/11/29 03:07:57;;;;;;;;;;;;;;;0.21;74.62;98427.47;5115510;28;19926;-73
2023/11/29 03:10:25;;;;;;;;;;;;;;;0.14;74.25;98425.66;5115736;28;19966;-74
2023/11/29 03:12:54;;;;;;;;;;;;;;;0.09;73.72;98422.19;5117143;28;20006;-75
2023/11/29 03:15:23;;;;;;;;;;;;;;;0.07;74.29;98428.84;5115613;28;19981;-73
2023/11/29 03:17:54;;;;;;;;;;;;;;;0.07;74.26;98433.88;5117072;28;20343;-71
2023/11/29 03:20:23;;;;;;;;;;;;;;;0.06;74.12;98440.53;5115599;28;19927;-71
2023/11/29 03:22:51;;;;;;;;;;;;;;;0.06;73.62;98455.59;5115154;28;19926;-71
2023/11/29 03:25:20;;;;;;;;;;;;;;;0.03;73.71;98458.03;5116492;28;19920;-73
2023/11/29 03:27:48;;;;;;;;;;;;;;;0.05;74.22;98465.59;5116259;28;20014;-75
2023/11/29 03:30:17;;;;;;;;;;;;;;;-0.01;74.50;98469.66;5115030;28;20347;-75
2023/11/29 03:32:45;;;;;;;;;;;;;;;-0.07;73.94;98467.00;5116406;28;20342;-74
2023/11/29 03:35:15;;;;;;;;;;;;;;;-0.08;74.41;98459.47;5115599;27;19994;-75
2023/11/29 03:37:44;;;;;;;;;;;;;;;-0.12;74.23;98466.06;5116370;28;20343;-75
2023/11/29 03:40:13;;;;;;;;;;;;;;;-0.13;73.78;98466.91;5115377;28;20280;-75
2023/11/29 03:42:41;;;;;;;;;;;;;;;-0.13;74.11;98471.91;5114630;28;19926;-75
2023/11/29 03:45:10;;;;;;;;;;;;;;;-0.14;73.78;98477.72;5097866;28;20479;-75
2023/11/29 03:47:39;;;;;;;;;;;;;;;-0.12;73.77;98482.78;5115579;28;19919;-75
2023/11/29 03:50:08;;;;;;;;;;;;;;;-0.15;73.40;98486.06;5116013;27;20377;-74
2023/11/29 03:52:39;;;;;;;;;;;;;;;-0.18;73.99;98488.50;5116071;28;19923;-75
2023/11/29 03:55:12;;;;;;;;;;;;;;;-0.18;74.08;98498.53;5114868;28;20281;-72
2023/11/29 03:57:42;;;;;;;;;;;;;;;-0.18;73.84;98498.53;5116056;28;19927;-74
2023/11/29 04:00:11;;;;;;;;;;;;;;;-0.18;74.37;98502.69;5097780;28;19920;-75
2023/11/29 04:02:40;;;;;;;;;;;;;;;-0.15;73.93;98508.63;5115781;28;19923;-75
2023/11/29 04:05:09;;;;;;;;;;;;;;;-0.10;73.64;98511.25;5115841;28;19926;-75
2023/11/29 04:07:40;;;;;;;;;;;;;;;-0.14;74.07;98507.81;5115419;28;19919;-73
2023/11/29 04:10:09;;;;;;;;;;;;;;;-0.19;74.02;98516.88;5115792;28;19973;-71
2023/11/29 04:12:39;;;;;;;;;;;;;;;-0.22;73.66;98521.84;5115391;28;20369;-71
2023/11/29 04:15:08;;;;;;;;;;;;;;;-0.24;73.84;98518.44;5115603;27;19923;-71
2023/11/29 04:17:37;;;;;;;;;;;;;;;-0.31;74.21;98521.63;5115563;28;19926;-71
2023/11/29 04:20:06;;;;;;;;;;;;;;;-0.27;74.03;98523.41;5114673;28;20350;-71
2023/11/29 04:22:37;;;;;;;;;;;;;;;-0.33;74.05;98527.41;5097013;28;19931;-71
2023/11/29 04:25:08;;;;;;;;;;;;;;;-0.42;74.41;98527.19;5114365;28;19951;-71
2023/11/29 04:27:37;;;;;;;;;;;;;;;-0.50;74.56;98523.66;5115409;28;19927;-71
2023/11/29 04:30:06;;;;;;;;;;;;;;;-0.49;74.60;98518.69;5114128;28;20005;-71
2023/11/29 04:32:35;;;;;;;;;;;;;;;-0.55;75.08;98516.03;5115329;28;19919;-71
2023/11/29 04:35:04;;;;;;;;;;;;;;;-0.55;74.52;98516.03;5097058;28;19919;-71
2023/11/29 04:37:34;;;;;;;;;;;;;;;-0.57;74.69;98525.16;5115179;28;19959;-71
2023/11/29 04:40:04;;;;;;;;;;;;;;;-0.65;74.61;98524.16;5115169;28;19920;-73
2023/11/29 04:42:34;;;;;;;;;;;;;;;-0.65;74.81;98529.16;5113545;28;20006;-71
2023/11/29 04:45:03;;;;;;;;;;;;;;;-0.63;74.72;98527.53;5113907;28;19919;-73
2023/11/29 04:47:31;;;;;;;;;;;;;;;-0.61;75.22;98530.91;5112606;28;20344;-74
2023/11/29 04:50:00;;;;;;;;;;;;;;;-0.63;74.70;98542.56;5115066;28;19927;-72
2023/11/29 04:52:30;;;;;;;;;;;;;;;-0.62;74.96;98529.22;5115068;28;20399;-73
2023/11/29 04:54:59;;;;;;;;;;;;;;;-0.67;74.86;98534.13;5113687;28;19927;-71
2023/11/29 04:57:27;;;;;;;;;;;;;;;-0.71;74.97;98529.00;5114544;28;20006;-71
2023/11/29 04:59:57;;;;;;;;;;;;;;;-0.73;75.09;98538.13;5114589;28;19920;-71
2023/11/29 05:02:26;;;;;;;;;;;;;;;-0.79;74.53;98530.44;5114857;28;19920;-71
2023/11/29 05:04:55;;;;;;;;;;;;;;;-0.80;74.94;98538.78;5113586;28;19919;-71
2023/11/29 05:07:23;;;;;;;;;;;;;;;-0.82;74.99;98540.41;5114819;28;19920;-71
2023/11/29 05:09:52;;;;;;;;;;;;;;;-0.81;74.52;98542.09;5114657;28;20277;-71
2023/11/29 05:12:21;;;;;;;;;;;;;;;-0.80;74.53;98548.81;5114478;28;19926;-71
2023/11/29 05:14:50;;;;;;;;;;;;;;;-0.79;74.14;98555.50;5114435;28;19930;-71
2023/11/29 05:17:20;;;;;;;;;;;;;;;-0.81;73.86;98547.09;5113559;28;19919;-71
2023/11/29 05:19:50;;;;;;;;;;;;;;;-0.80;74.17;98553.81;5114947;28;19945;-71
2023/11/29 05:22:19;;;;;;;;;;;;;;;-0.82;74.05;98550.44;5114327;28;19966;-71
2023/11/29 05:24:48;;;;;;;;;;;;;;;-0.87;73.45;98556.97;5114228;28;19920;-71
2023/11/29 05:27:16;;;;;;;;;;;;;;;-0.89;73.90;98564.44;5113199;28;19925;-71
2023/11/29 05:29:45;;;;;;;;;;;;;;;-0.86;74.08;98571.16;5114475;28;20324;-71
2023/11/29 05:32:13;;;;;;;;;;;;;;;-0.83;73.89;98581.28;5114581;28;19930;-71
2023/11/29 05:34:43;;;;;;;;;;;;;;;-0.87;73.73;98599.53;5114548;28;19934;-71
2023/11/29 05:37:12;;;;;;;;;;;;;;;-0.89;73.76;98603.66;5114260;28;19919;-71
2023/11/29 05:39:40;;;;;;;;;;;;;;;-0.91;74.01;98606.09;5113253;28;19920;-71
2023/11/29 05:42:09;;;;;;;;;;;;;;;-0.90;73.76;98606.97;5114147;28;19920;-74
2023/11/29 05:44:37;;;;;;;;;;;;;;;-0.89;73.82;98609.50;5114165;28;19919;-74
2023/11/29 05:47:06;;;;;;;;;;;;;;;-0.86;73.69;98603.72;5114240;28;19951;-75
2023/11/29 05:49:35;;;;;;;;;;;;;;;-0.86;73.74;98608.72;5114476;28;19923;-75
2023/11/29 05:52:05;;;;;;;;;;;;;;;-0.92;73.72;98609.44;5114415;28;20014;-75
2023/11/29 05:54:34;;;;;;;;;;;;;;;-0.95;73.70;98614.34;5114414;28;19920;-76
2023/11/29 05:57:03;;;;;;;;;;;;;;;-0.98;73.42;98618.41;5114398;28;19964;-75
2023/11/29 05:59:31;;;;;;;;;;;;;;;-0.98;73.57;98619.28;5116678;28;20331;-75
2023/11/29 06:02:00;;;;;;;;;;;;;;;-0.95;73.14;98616.00;5118594;28;20014;-75
2023/11/29 06:04:28;;;;;;;;;;;;;;;-0.97;73.03;98615.13;5118105;28;20319;-76
2023/11/29 06:06:57;;;;;;;;;;;;;;;-1.02;73.04;98624.16;5117800;28;20011;-76
2023/11/29 06:09:30;;;;;;;;;;;;;;;-1.05;72.89;98624.06;5118062;28;20359;-76
2023/11/29 06:11:59;;;;;;;;;;;;;;;-1.05;73.06;98632.41;5116853;28;19927;-71
2023/11/29 06:14:27;;;;;;;;;;;;;;;-1.01;73.00;98631.69;5116536;28;20018;-73
2023/11/29 06:16:56;;;;;;;;;;;;;;;-0.96;73.08;98645.19;5117907;28;20348;-72
2023/11/29 06:19:25;;;;;;;;;;;;;;;-0.98;72.91;98643.44;5117336;28;19927;-75
2023/11/29 06:21:54;;;;;;;;;;;;;;;-1.05;72.96;98651.59;5117795;28;19920;-76
2023/11/29 06:24:23;;;;;;;;;;;;;;;-1.05;73.06;98651.59;5117768;27;19919;-75
2023/11/29 06:26:53;;;;;;;;;;;;;;;-1.07;73.17;98658.22;5117675;28;19919;-75
2023/11/29 06:29:21;;;;;;;;;;;;;;;-1.06;73.21;98654.91;5117764;28;19919;-75
2023/11/29 06:31:50;;;;;;;;;;;;;;;-1.06;73.35;98654.91;5117152;28;20385;-75
2023/11/29 06:34:19;;;;;;;;;;;;;;;-1.10;73.40;98661.47;5117233;28;19927;-75
2023/11/29 06:36:48;;;;;;;;;;;;;;;-1.14;73.58;98663.84;5117185;28;20376;-75
2023/11/29 06:39:18;;;;;;;;;;;;;;;-1.05;73.77;98666.63;5117492;28;19919;-75
2023/11/29 06:41:48;;;;;;;;;;;;;;;-0.78;73.95;98677.41;5117179;28;20285;-75
2023/11/29 06:44:18;;;;;;;;;;;;;;;-0.53;73.65;98679.78;5115811;28;19926;-75
2023/11/29 06:46:47;;;;;;;;;;;;;;;-0.40;73.19;98685.94;5116143;28;20027;-75
2023/11/29 06:49:17;;;;;;;;;;;;;;;-0.36;72.52;98697.75;5116823;28;19926;-75
2023/11/29 06:51:46;;;;;;;;;;;;;;;-0.36;72.66;98706.09;5117319;28;20427;-75
2023/11/29 06:54:14;;;;;;;;;;;;;;;-0.34;72.46;98701.16;5104264;28;19958;-76
2023/11/29 06:56:42;;;;;;;;;;;;;;;-0.31;71.98;98707.06;5113485;28;19920;-75
2023/11/29 06:59:11;;;;;;;;;;;;;;;-0.02;72.14;98710.31;5117116;28;20025;-75
2023/11/29 07:01:41;;;;;;;;;;;;;;;0.37;72.71;98716.31;5117197;28;19927;-76
2023/11/29 07:04:10;;;;;;;;;;;;;;;0.74;72.48;98712.16;5113267;28;19942;-76
2023/11/29 07:06:39;;;;;;;;;;;;;;;0.95;71.26;98708.44;5116529;28;19926;-72
2023/11/29 07:09:08;;;;;;;;;;;;;;;1.02;71.38;98712.75;5115141;28;19947;-74
2023/11/29 07:11:36;;;;;;;;;;;;;;;0.86;69.97;98713.25;5115470;27;19919;-77
2023/11/29 07:14:05;;;;;;;;;;;;;;;0.76;70.50;98718.03;5104630;28;20374;-76
2023/11/29 07:16:34;;;;;;;;;;;;;;;0.67;69.79;98721.22;5110314;28;19927;-78
2023/11/29 07:19:24;;;;;;;;;;;;;;;0.69;70.16;98727.09;5101146;28;20318;-77
2023/11/29 07:21:53;;;;;;;;;;;;;;;0.77;70.13;98724.78;5098582;28;19927;-78
2023/11/29 07:24:22;;;;;;;;;;;;;;;0.81;70.09;98729.91;5095029;28;19923;-72
2023/11/29 07:26:51;;;;;;;;;;;;;;;0.76;69.79;98730.59;5094840;28;19927;-72
2023/11/29 07:29:19;;;;;;;;;;;;;;;0.75;69.72;98739.78;5093770;28;19964;-72
2023/11/29 07:31:48;;;;;;;;;;;;;;;0.87;70.27;98745.06;5105207;28;19919;-72
2023/11/29 07:34:17;;;;;;;;;;;;;;;0.92;70.39;98743.53;5116411;28;20377;-72
2023/11/29 07:36:51;;;;;;;;;;;;;;;0.92;69.61;98748.53;5116323;28;19927;-78
2023/11/29 07:39:20;;;;;;;;;;;;;;;1.02;69.91;98747.94;5108384;28;19920;-78
2023/11/29 07:41:49;;;;;;;;;;;;;;;1.15;69.46;98756.59;5112827;28;20250;-72
2023/11/29 07:44:21;;;;;;;;;;;;;;;1.19;68.81;98759.19;5112567;28;19919;-72
2023/11/29 07:46:51;;;;;;;;;;;;;;;1.23;68.98;98760.09;5116214;28;19967;-72
2023/11/29 07:49:19;;;;;;;;;;;;;;;1.29;68.45;98760.22;5115592;27;19920;-72
2023/11/29 07:51:50;;;;;;;;;;;;;;;1.39;68.50;98766.28;5116128;28;19920;-72
2023/11/29 07:54:18;;;;;;;;;;;;;;;1.45;67.32;98766.41;5105036;28;20377;-72
2023/11/29 07:56:47;;;;;;;;;;;;;;;1.46;66.88;98768.97;5094627;28;19920;-71
2023/11/29 07:59:16;;;;;;;;;;;;;;;1.55;66.16;98763.28;5105447;28;19920;-72
2023/11/29 08:01:46;;;;;;;;;;;;;;;1.59;66.64;98775.06;5116162;28;19965;-72
2023/11/29 08:04:15;;;;;;;;;;;;;;;1.57;65.63;98776.72;5114373;28;19923;-72
2023/11/29 08:06:43;;;;;;;;;;;;;;;1.73;66.28;98769.50;5114208;28;20334;-72
2023/11/29 08:09:13;;;;;;;;;;;;;;;1.76;65.05;98774.59;5115426;28;19965;-72
2023/11/29 08:11:44;;;;;;;;;;;;;;;1.85;65.19;98774.75;5114440;28;19919;-76
2023/11/29 08:14:13;;;;;;;;;;;;;;;1.90;65.21;98772.31;5114045;28;20010;-77
2023/11/29 08:16:41;;;;;;;;;;;;;;;2.00;64.16;98775.06;5114170;28;20419;-71
2023/11/29 08:19:10;;;;;;;;;;;;;;;2.01;64.35;98775.91;5114226;28;19920;-73
2023/11/29 08:21:39;;;;;;;;;;;;;;;2.04;63.17;98783.50;5113860;28;20473;-77
2023/11/29 08:24:08;;;;;;;;;;;;;;;2.05;63.36;98782.69;5115029;28;20365;-76
2023/11/29 08:26:38;;;;;;;;;;;;;;;1.98;61.96;98780.88;5114116;28;19920;-77
2023/11/29 08:29:06;;;;;;;;;;;;;;;2.00;62.54;98789.28;5115321;28;19920;-75
2023/11/29 08:31:35;;;;;;;;;;;;;;;2.12;62.28;98783.63;5106146;28;19924;-76
2023/11/29 08:34:03;;;;;;;;;;;;;;;2.24;61.95;98789.75;5101410;28;19924;-75
2023/11/29 08:36:32;;;;;;;;;;;;;;;2.06;60.46;98796.97;5094790;28;19920;-74
2023/11/29 08:39:01;;;;;;;;;;;;;;;1.83;60.49;98793.16;5093595;28;20312;-75
2023/11/29 08:41:30;;;;;;;;;;;;;;;1.75;59.59;98793.00;5091629;28;19920;-75
2023/11/29 08:44:00;;;;;;;;;;;;;;;1.69;59.72;98797.94;5093497;28;19920;-77
2023/11/29 08:46:29;;;;;;;;;;;;;;;1.69;58.98;98805.47;5093384;28;19920;-78
2023/11/29 08:48:58;;;;;;;;;;;;;;;1.87;59.50;98797.44;5094591;28;19924;-77
2023/11/29 08:51:29;;;;;;;;;;;;;;;2.06;59.72;98809.56;5098658;28;19920;-78
2023/11/29 08:53:58;;;;;;;;;;;;;;;2.17;58.96;98813.09;5099780;28;19924;-78
2023/11/29 08:56:27;;;;;;;;;;;;;;;2.00;58.40;98819.47;5111587;28;19920;-77
2023/11/29 08:58:56;;;;;;;;;;;;;;;1.89;57.77;98815.94;5097416;28;20003;-76
2023/11/29 09:01:26;;;;;;;;;;;;;;;1.78;57.91;98822.41;5093779;28;19924;-73
2023/11/29 09:03:54;;;;;;;;;;;;;;;1.76;58.38;98819.00;5092052;28;19923;-75
2023/11/29 09:06:23;;;;;;;;;;;;;;;1.96;58.74;98817.75;5104852;28;19965;-75
2023/11/29 09:08:53;;;;;;;;;;;;;;;2.13;58.21;98816.41;5113271;28;20270;-75
2023/11/29 09:11:21;;;;;;;;;;;;;;;2.24;58.41;98824.97;5097735;28;19920;-75
2023/11/29 09:13:50;;;;;;;;;;;;;;;2.32;57.50;98828.50;5094491;28;20449;-74
2023/11/29 09:16:19;;;;;;;;;;;;;;;2.26;57.25;98828.38;5094368;28;19942;-76
2023/11/29 09:18:49;;;;;;;;;;;;;;;2.18;56.77;98829.91;5094310;28;19923;-74
2023/11/29 09:21:18;;;;;;;;;;;;;;;2.32;57.88;98823.47;5094378;28;19973;-77
2023/11/29 09:23:49;;;;;;;;;;;;;;;2.32;57.12;98820.94;5095953;28;20302;-77
2023/11/29 09:26:17;;;;;;;;;;;;;;;2.27;56.75;98825.03;5099767;28;20362;-74
2023/11/29 09:28:46;;;;;;;;;;;;;;;2.25;56.72;98826.69;5113994;28;20261;-74
2023/11/29 09:31:15;;;;;;;;;;;;;;;2.21;56.89;98824.91;5112958;28;20018;-74
2023/11/29 09:33:44;;;;;;;;;;;;;;;2.32;56.52;98823.47;5115799;28;19920;-74
2023/11/29 09:36:15;;;;;;;;;;;;;;;2.50;56.37;98822.91;5099879;28;19920;-73
2023/11/29 09:38:44;;;;;;;;;;;;;;;2.45;56.14;98812.75;5099190;28;19927;-75
2023/11/29 09:41:14;;;;;;;;;;;;;;;2.44;56.28;98818.63;5097863;28;19924;-75
2023/11/29 09:43:42;;;;;;;;;;;;;;;2.45;56.40;98814.41;5111162;28;20365;-74
2023/11/29 09:46:11;;;;;;;;;;;;;;;2.43;55.68;98816.94;5118418;28;19920;-76
2023/11/29 09:48:40;;;;;;;;;;;;;;;2.37;55.91;98821.88;5118223;28;19919;-74
2023/11/29 09:51:08;;;;;;;;;;;;;;;2.28;55.64;98818.34;5118236;28;19967;-77
2023/11/29 09:53:38;;;;;;;;;;;;;;;2.56;56.06;98813.81;5120731;28;20336;-77
2023/11/29 09:56:07;;;;;;;;;;;;;;;2.76;56.65;98805.72;5118193;28;19981;-77
2023/11/29 09:58:36;;;;;;;;;;;;;;;2.76;55.84;98801.50;5117814;28;20289;-75
2023/11/29 10:01:05;;;;;;;;;;;;;;;2.71;55.76;98803.97;5104456;28;19927;-75
2023/11/29 10:03:34;;;;;;;;;;;;;;;2.72;56.44;98813.22;5096199;28;20379;-75
2023/11/29 10:06:04;;;;;;;;;;;;;;;3.10;56.10;98818.00;5097393;28;19920;-76
2023/11/29 10:08:32;;;;;;;;;;;;;;;3.31;54.97;98805.72;5098659;28;20381;-76
2023/11/29 10:11:02;;;;;;;;;;;;;;;3.26;55.08;98804.81;5117805;27;19927;-75
2023/11/29 10:13:31;;;;;;;;;;;;;;;3.11;54.92;98804.59;5118164;28;19942;-76
2023/11/29 10:15:59;;;;;;;;;;;;;;;3.01;54.09;98812.81;5117892;28;20288;-76
2023/11/29 10:18:28;;;;;;;;;;;;;;;3.00;54.23;98801.88;5116105;28;19925;-77
2023/11/29 10:20:57;;;;;;;;;;;;;;;3.13;54.77;98797.88;5082675;28;19923;-76
2023/11/29 10:23:39;;;;;;;;;;;;;;;3.60;55.14;98796.00;5116692;28;20285;-77
2023/11/29 10:26:09;;;;;;;;;;;;;;;3.72;53.91;98791.94;5117737;28;19919;-76
2023/11/29 10:28:40;;;;;;;;;;;;;;;3.39;53.85;98789.00;5114851;28;20028;-75
2023/11/29 10:31:09;;;;;;;;;;;;;;;3.35;54.14;98787.28;5117323;28;19920;-75
2023/11/29 10:33:40;;;;;;;;;;;;;;;3.21;53.79;98791.28;5116175;28;19924;-76
2023/11/29 10:36:11;;;;;;;;;;;;;;;3.34;54.52;98790.63;5118114;28;19920;-76
2023/11/29 10:38:43;;;;;;;;;;;;;;;3.30;53.94;98791.41;5114891;28;20281;-75
2023/11/29 10:41:17;;;;;;;;;;;;;;;3.10;53.61;98785.22;5114599;28;19923;-76
2023/11/29 10:43:48;;;;;;;;;;;;;;;3.07;54.39;98792.78;5099284;28;19924;-75
2023/11/29 10:46:22;;;;;;;;;;;;;;;3.41;54.04;98786.53;5114689;28;19919;-76
2023/11/29 10:48:56;;;;;;;;;;;;;;;3.89;53.76;98789.59;5113673;28;19926;-76
2023/11/29 10:51:26;;;;;;;;;;;;;;;4.36;53.91;98790.13;5116035;28;20026;-77
2023/11/29 10:53:56;;;;;;;;;;;;;;;4.10;53.30;98789.88;5117279;28;19920;-76
2023/11/29 10:56:27;;;;;;;;;;;;;;;4.21;53.98;98797.53;5115688;28;20395;-77
2023/11/29 10:59:04;;;;;;;;;;;;;;;4.40;53.05;98789.28;5096580;28;19998;-76
2023/11/29 11:01:34;;;;;;;;;;;;;;;4.54;52.46;98787.75;5095646;28;19920;-76
2023/11/29 11:04:03;;;;;;;;;;;;;;;4.69;52.57;98793.78;5095189;28;20286;-78
2023/11/29 11:06:35;;;;;;;;;;;;;;;4.64;52.42;98789.50;5095167;28;19920;-78
2023/11/29 11:09:06;;;;;;;;;;;;;;;4.49;52.77;98789.38;5096541;28;19926;-77
2023/11/29 11:11:42;;;;;;;;;;;;;;;4.59;52.84;98791.16;5096102;28;20006;-78
2023/11/29 11:14:15;;;;;;;;;;;;;;;4.71;52.30;98797.16;5101756;28;19945;-76
2023/11/29 11:16:54;;;;;;;;;;;;;;;4.78;51.79;98790.47;5116643;28;20361;-76
2023/11/29 11:19:28;;;;;;;;;;;;;;;4.78;51.96;98785.41;5107797;28;19928;-77
2023/11/29 11:21:57;;;;;;;;;;;;;;;4.59;52.09;98793.69;5101104;28;19923;-77
2023/11/29 11:24:36;;;;;;;;;;;;;;;4.67;52.76;98794.59;5118704;28;19924;-78
2023/11/29 11:27:09;;;;;;;;;;;;;;;4.59;52.40;98791.16;5115035;28;20449;-77
2023/11/29 11:29:37;;;;;;;;;;;;;;;4.71;52.18;98786.19;5066631;28;19930;-77
2023/11/29 11:32:06;;;;;;;;;;;;;;;4.69;52.33;98782.81;5120984;28;20342;-76
2023/11/29 11:34:37;;;;;;;;;;;;;;;4.81;51.85;98780.38;5114975;28;19962;-76
2023/11/29 11:37:07;;;;;;;;;;;;;;;4.93;52.05;98790.59;5114146;27;19920;-78
2023/11/29 11:39:37;;;;;;;;;;;;;;;4.83;51.26;98785.44;5098440;28;19981;-77
2023/11/29 11:42:06;;;;;;;;;;;;;;;4.82;51.41;98784.63;5103330;28;19920;-78
2023/11/29 11:44:36;;;;;;;;;;;;;;;5.07;51.96;98789.00;5097042;28;19927;-77
2023/11/29 11:47:05;;;;;;;;;;;;;;;5.16;50.91;98795.81;5077221;28;20056;-77
2023/11/29 11:49:34;;;;;;;;;;;;;;;4.92;50.63;98795.66;5094614;28;19942;-76
2023/11/29 11:52:04;;;;;;;;;;;;;;;4.88;51.11;98797.28;5095809;28;19962;-76
2023/11/29 11:54:33;;;;;;;;;;;;;;;4.94;51.59;98793.97;5097572;28;20384;-77
2023/11/29 11:57:01;;;;;;;;;;;;;;;4.89;51.84;98796.47;5105555;28;19920;-76
2023/11/29 11:59:30;;;;;;;;;;;;;;;4.95;51.96;98793.97;5114720;28;19966;-76
2023/11/29 12:02:00;;;;;;;;;;;;;;;5.32;51.91;98805.19;5109655;28;19920;-77
2023/11/29 12:04:29;;;;;;;;;;;;;;;5.10;50.74;98804.19;5128196;28;19971;-78
2023/11/29 12:06:57;;;;;;;;;;;;;;;5.09;51.57;98810.06;5089881;28;19958;-78
2023/11/29 12:09:27;;;;;;;;;;;;;;;5.47;51.28;98807.78;5123169;28;19942;-77
2023/11/29 12:12:07;;;;;;;;;;;;;;;5.88;50.22;98818.13;5121735;28;20014;-77
2023/11/29 12:14:37;;;;;;;;;;;;;;;6.22;49.64;98811.47;5115328;28;19920;-76
2023/11/29 12:17:07;;;;;;;;;;;;;;;6.55;49.10;98812.38;5115211;28;19965;-76
2023/11/29 12:19:36;;;;;;;;;;;;;;;6.93;48.02;98804.81;5116782;28;19968;-76
2023/11/29 12:22:05;;;;;;;;;;;;;;;7.04;47.65;98802.25;5113982;28;19919;-76
2023/11/29 12:24:39;;;;;;;;;;;;;;;7.10;47.66;98802.25;5120133;28;19927;-77
2023/11/29 12:27:16;;;;;;;;;;;;;;;7.16;47.28;98797.16;5118311;28;19919;-77
2023/11/29 12:29:46;;;;;;;;;;;;;;;7.21;48.33;98805.63;5119133;28;19920;-78
2023/11/29 12:32:17;;;;;;;;;;;;;;;7.21;47.99;98810.69;5105606;28;19920;-76
2023/11/29 12:34:45;;;;;;;;;;;;;;;7.08;47.53;98809.03;5095326;28;20355;-76
2023/11/29 12:37:15;;;;;;;;;;;;;;;6.79;48.00;98810.72;5096485;28;19920;-76
2023/11/29 12:39:45;;;;;;;;;;;;;;;6.61;48.54;98816.63;5099702;28;20376;-76
2023/11/29 12:42:13;;;;;;;;;;;;;;;6.42;48.34;98810.69;5097534;28;19993;-76
2023/11/29 12:44:42;;;;;;;;;;;;;;;6.15;47.89;98805.56;5093874;28;20472;-75
2023/11/29 12:47:12;;;;;;;;;;;;;;;5.98;48.83;98802.13;5115788;28;19919;-76
2023/11/29 12:49:43;;;;;;;;;;;;;;;5.54;48.82;98803.63;5114076;28;20374;-76
2023/11/29 12:52:12;;;;;;;;;;;;;;;5.06;50.00;98810.06;5114992;28;20273;-74
2023/11/29 12:54:40;;;;;;;;;;;;;;;4.75;50.38;98818.28;5093392;28;19920;-77
2023/11/29 12:57:09;;;;;;;;;;;;;;;4.36;51.57;98807.78;5099667;28;19946;-77
2023/11/29 12:59:38;;;;;;;;;;;;;;;4.26;52.01;98813.56;5101817;28;19920;-78
2023/11/29 13:02:07;;;;;;;;;;;;;;;4.15;52.51;98808.41;5101042;28;19986;-77
2023/11/29 13:04:36;;;;;;;;;;;;;;;3.97;52.25;98809.06;5101043;28;19920;-78
2023/11/29 13:07:07;;;;;;;;;;;;;;;3.81;52.69;98809.75;5054173;28;19965;-77